sensor_id;sensor_type;location;lat;lon;timestamp;temperature;humidity
23987;DHT22;12514;52.140;5.602;2022-08-01T00:00:09;20.40;99.90
23987;DHT22;12514;52.140;5.602;2022-08-01T00:02:36;20.40;99.90
23987;DHT22;12514;52.140;5.602;2022-08-01T00:05:01;20.40;99.90
23987;DHT22;12514;52.140;5.602;2022-08-01T00:07:27;20.50;99.90
23987;DHT22;12514;52.140;5.602;2022-08-01T00:09:53;20.50;99.90
23987;DHT22;12514;52.140;5.602;2022-08-01T00:12:18;20.60;99.90
23987;DHT22;12514;52.140;5.602;2022-08-01T00:14:44;20.70;99.90
23987;DHT22;12514;52.140;5.602;2022-08-01T00:17:09;20.70;99.90
23987;DHT22;12514;52.140;5.602;2022-08-01T00:19:35;20.50;99.90
23987;DHT22;12514;52.140;5.602;2022-08-01T00:22:00;20.50;99.90
23987;DHT22;12514;52.140;5.602;2022-08-01T00:24:26;20.50;99.90
23987;DHT22;12514;52.140;5.602;2022-08-01T00:26:52;20.40;99.90
23987;DHT22;12514;52.140;5.602;2022-08-01T00:29:17;20.40;99.90
23987;DHT22;12514;52.140;5.602;2022-08-01T00:31:43;20.40;99.90
23987;DHT22;12514;52.140;5.602;2022-08-01T00:34:08;20.40;99.90
23987;DHT22;12514;52.140;5.602;2022-08-01T00:36:34;20.30;99.90
23987;DHT22;12514;52.140;5.602;2022-08-01T00:38:59;20.40;99.90
23987;DHT22;12514;52.140;5.602;2022-08-01T00:44:47;20.60;99.90
23987;DHT22;12514;52.140;5.602;2022-08-01T00:47:13;20.40;99.90
23987;DHT22;12514;52.140;5.602;2022-08-01T00:49:38;20.20;99.90
23987;DHT22;12514;52.140;5.602;2022-08-01T00:52:05;20.20;99.90
23987;DHT22;12514;52.140;5.602;2022-08-01T00:54:31;20.20;99.90
23987;DHT22;12514;52.140;5.602;2022-08-01T00:56:57;20.10;99.90
23987;DHT22;12514;52.140;5.602;2022-08-01T00:59:23;20.20;99.90
23987;DHT22;12514;52.140;5.602;2022-08-01T01:01:49;20.30;99.90
23987;DHT22;12514;52.140;5.602;2022-08-01T01:04:15;20.40;99.90
23987;DHT22;12514;52.140;5.602;2022-08-01T01:15:34;20.30;99.90
23987;DHT22;12514;52.140;5.602;2022-08-01T01:18:24;20.30;99.90
23987;DHT22;12514;52.140;5.602;2022-08-01T01:26:21;20.10;99.90
23987;DHT22;12514;52.140;5.602;2022-08-01T01:28:59;19.90;99.90
23987;DHT22;12514;52.140;5.602;2022-08-01T01:31:26;20.00;99.90
23987;DHT22;12514;52.140;5.602;2022-08-01T01:33:53;20.10;99.90
23987;DHT22;12514;52.140;5.602;2022-08-01T01:36:19;20.00;99.90
23987;DHT22;12514;52.140;5.602;2022-08-01T01:38:48;19.90;99.90
23987;DHT22;12514;52.140;5.602;2022-08-01T01:41:15;20.00;99.90
23987;DHT22;12514;52.140;5.602;2022-08-01T01:43:42;19.90;99.90
23987;DHT22;12514;52.140;5.602;2022-08-01T01:46:10;19.60;99.90
23987;DHT22;12514;52.140;5.602;2022-08-01T01:48:37;19.50;99.90
23987;DHT22;12514;52.140;5.602;2022-08-01T01:51:04;19.40;99.90
23987;DHT22;12514;52.140;5.602;2022-08-01T01:53:32;19.30;99.90
23987;DHT22;12514;52.140;5.602;2022-08-01T01:55:59;19.30;99.90
23987;DHT22;12514;52.140;5.602;2022-08-01T01:58:26;19.20;99.90
23987;DHT22;12514;52.140;5.602;2022-08-01T02:00:55;19.30;99.90
23987;DHT22;12514;52.140;5.602;2022-08-01T02:03:22;19.40;99.90
23987;DHT22;12514;52.140;5.602;2022-08-01T02:05:51;19.40;99.90
23987;DHT22;12514;52.140;5.602;2022-08-01T02:08:17;19.20;99.90
23987;DHT22;12514;52.140;5.602;2022-08-01T02:10:44;19.00;99.90
23987;DHT22;12514;52.140;5.602;2022-08-01T02:13:34;19.10;99.90
23987;DHT22;12514;52.140;5.602;2022-08-01T02:16:03;19.10;99.90
23987;DHT22;12514;52.140;5.602;2022-08-01T02:18:29;19.30;99.90
23987;DHT22;12514;52.140;5.602;2022-08-01T02:20:57;19.20;99.90
23987;DHT22;12514;52.140;5.602;2022-08-01T02:23:28;19.30;99.90
23987;DHT22;12514;52.140;5.602;2022-08-01T02:25:58;19.40;99.90
23987;DHT22;12514;52.140;5.602;2022-08-01T02:28:30;19.60;99.90
23987;DHT22;12514;52.140;5.602;2022-08-01T02:31:02;19.70;99.90
23987;DHT22;12514;52.140;5.602;2022-08-01T02:33:38;19.70;99.90
23987;DHT22;12514;52.140;5.602;2022-08-01T02:36:06;19.80;99.90
23987;DHT22;12514;52.140;5.602;2022-08-01T02:38:35;19.40;99.90
23987;DHT22;12514;52.140;5.602;2022-08-01T02:41:08;19.50;99.90
23987;DHT22;12514;52.140;5.602;2022-08-01T02:43:37;19.30;99.90
23987;DHT22;12514;52.140;5.602;2022-08-01T02:46:04;19.40;99.90
23987;DHT22;12514;52.140;5.602;2022-08-01T02:48:33;19.50;99.90
23987;DHT22;12514;52.140;5.602;2022-08-01T02:51:01;19.60;99.90
23987;DHT22;12514;52.140;5.602;2022-08-01T02:53:31;19.60;99.90
23987;DHT22;12514;52.140;5.602;2022-08-01T02:55:58;19.60;99.90
23987;DHT22;12514;52.140;5.602;2022-08-01T02:58:24;19.80;99.90
23987;DHT22;12514;52.140;5.602;2022-08-01T03:00:51;19.60;99.90
23987;DHT22;12514;52.140;5.602;2022-08-01T03:03:17;19.50;99.90
23987;DHT22;12514;52.140;5.602;2022-08-01T03:05:43;19.50;99.90
23987;DHT22;12514;52.140;5.602;2022-08-01T03:08:10;19.70;99.90
23987;DHT22;12514;52.140;5.602;2022-08-01T03:10:38;19.60;99.90
23987;DHT22;12514;52.140;5.602;2022-08-01T03:13:06;19.70;99.90
23987;DHT22;12514;52.140;5.602;2022-08-01T03:15:36;19.90;99.90
23987;DHT22;12514;52.140;5.602;2022-08-01T03:18:05;20.00;99.90
23987;DHT22;12514;52.140;5.602;2022-08-01T03:20:33;20.00;99.90
23987;DHT22;12514;52.140;5.602;2022-08-01T03:23:03;20.00;99.90
23987;DHT22;12514;52.140;5.602;2022-08-01T03:25:30;19.90;99.90
23987;DHT22;12514;52.140;5.602;2022-08-01T03:27:59;19.80;99.90
23987;DHT22;12514;52.140;5.602;2022-08-01T03:30:27;19.80;99.90
23987;DHT22;12514;52.140;5.602;2022-08-01T03:32:55;19.90;99.90
23987;DHT22;12514;52.140;5.602;2022-08-01T03:35:22;19.80;99.90
23987;DHT22;12514;52.140;5.602;2022-08-01T03:37:52;19.70;99.90
23987;DHT22;12514;52.140;5.602;2022-08-01T03:40:25;19.80;99.90
23987;DHT22;12514;52.140;5.602;2022-08-01T03:42:58;19.80;99.90
23987;DHT22;12514;52.140;5.602;2022-08-01T03:45:32;19.70;99.90
23987;DHT22;12514;52.140;5.602;2022-08-01T03:48:03;19.60;99.90
23987;DHT22;12514;52.140;5.602;2022-08-01T03:50:31;19.50;99.90
23987;DHT22;12514;52.140;5.602;2022-08-01T03:53:00;19.40;99.90
23987;DHT22;12514;52.140;5.602;2022-08-01T03:55:26;19.30;99.90
23987;DHT22;12514;52.140;5.602;2022-08-01T03:57:53;19.40;99.90
23987;DHT22;12514;52.140;5.602;2022-08-01T04:00:19;19.30;99.90
23987;DHT22;12514;52.140;5.602;2022-08-01T04:02:48;19.10;99.90
23987;DHT22;12514;52.140;5.602;2022-08-01T04:05:15;19.20;99.90
23987;DHT22;12514;52.140;5.602;2022-08-01T04:07:46;19.30;99.90
23987;DHT22;12514;52.140;5.602;2022-08-01T04:10:12;19.30;99.90
23987;DHT22;12514;52.140;5.602;2022-08-01T04:12:37;19.30;99.90
23987;DHT22;12514;52.140;5.602;2022-08-01T04:15:04;19.20;99.90
23987;DHT22;12514;52.140;5.602;2022-08-01T04:17:30;19.20;99.90
23987;DHT22;12514;52.140;5.602;2022-08-01T04:19:56;19.30;99.90
23987;DHT22;12514;52.140;5.602;2022-08-01T04:22:21;19.30;99.90
23987;DHT22;12514;52.140;5.602;2022-08-01T04:24:49;19.20;99.90
23987;DHT22;12514;52.140;5.602;2022-08-01T04:30:38;19.30;99.90
23987;DHT22;12514;52.140;5.602;2022-08-01T04:33:06;19.30;99.90
23987;DHT22;12514;52.140;5.602;2022-08-01T04:35:33;19.10;99.90
23987;DHT22;12514;52.140;5.602;2022-08-01T04:38:01;19.10;99.90
23987;DHT22;12514;52.140;5.602;2022-08-01T04:40:27;18.90;99.90
23987;DHT22;12514;52.140;5.602;2022-08-01T04:42:53;19.10;99.90
23987;DHT22;12514;52.140;5.602;2022-08-01T04:45:19;19.10;99.90
23987;DHT22;12514;52.140;5.602;2022-08-01T04:47:46;18.80;99.90
23987;DHT22;12514;52.140;5.602;2022-08-01T04:50:13;18.70;99.90
23987;DHT22;12514;52.140;5.602;2022-08-01T04:52:39;18.50;99.90
23987;DHT22;12514;52.140;5.602;2022-08-01T04:55:08;18.40;99.90
23987;DHT22;12514;52.140;5.602;2022-08-01T05:00:55;18.30;99.90
23987;DHT22;12514;52.140;5.602;2022-08-01T05:03:21;18.50;99.90
23987;DHT22;12514;52.140;5.602;2022-08-01T05:05:46;18.70;99.90
23987;DHT22;12514;52.140;5.602;2022-08-01T05:08:12;18.70;99.90
23987;DHT22;12514;52.140;5.602;2022-08-01T05:10:38;18.80;99.90
23987;DHT22;12514;52.140;5.602;2022-08-01T05:13:03;19.00;99.90
23987;DHT22;12514;52.140;5.602;2022-08-01T05:15:29;18.90;99.90
23987;DHT22;12514;52.140;5.602;2022-08-01T05:17:54;18.90;99.90
23987;DHT22;12514;52.140;5.602;2022-08-01T05:20:21;19.00;99.90
23987;DHT22;12514;52.140;5.602;2022-08-01T05:22:47;19.00;99.90
23987;DHT22;12514;52.140;5.602;2022-08-01T05:25:12;19.00;99.90
23987;DHT22;12514;52.140;5.602;2022-08-01T05:31:00;19.10;99.90
23987;DHT22;12514;52.140;5.602;2022-08-01T05:33:26;19.10;99.90
23987;DHT22;12514;52.140;5.602;2022-08-01T05:35:51;19.00;99.90
23987;DHT22;12514;52.140;5.602;2022-08-01T05:38:17;19.20;99.90
23987;DHT22;12514;52.140;5.602;2022-08-01T05:40:42;19.30;99.90
23987;DHT22;12514;52.140;5.602;2022-08-01T05:43:08;19.40;99.90
23987;DHT22;12514;52.140;5.602;2022-08-01T05:45:34;19.50;99.90
23987;DHT22;12514;52.140;5.602;2022-08-01T05:47:59;19.60;99.90
23987;DHT22;12514;52.140;5.602;2022-08-01T05:50:25;19.60;99.90
23987;DHT22;12514;52.140;5.602;2022-08-01T05:52:50;19.40;99.90
23987;DHT22;12514;52.140;5.602;2022-08-01T05:55:16;19.70;99.90
23987;DHT22;12514;52.140;5.602;2022-08-01T06:01:03;19.10;99.90
23987;DHT22;12514;52.140;5.602;2022-08-01T06:03:29;19.30;99.90
23987;DHT22;12514;52.140;5.602;2022-08-01T06:05:57;19.50;99.90
23987;DHT22;12514;52.140;5.602;2022-08-01T06:08:22;19.70;99.90
23987;DHT22;12514;52.140;5.602;2022-08-01T06:10:48;19.50;99.90
23987;DHT22;12514;52.140;5.602;2022-08-01T06:13:14;19.50;99.90
23987;DHT22;12514;52.140;5.602;2022-08-01T06:15:40;19.50;99.90
23987;DHT22;12514;52.140;5.602;2022-08-01T06:18:05;19.60;99.90
23987;DHT22;12514;52.140;5.602;2022-08-01T06:20:31;19.60;99.90
23987;DHT22;12514;52.140;5.602;2022-08-01T06:22:57;19.70;99.90
23987;DHT22;12514;52.140;5.602;2022-08-01T06:25:22;19.80;99.90
23987;DHT22;12514;52.140;5.602;2022-08-01T06:31:10;19.90;99.90
23987;DHT22;12514;52.140;5.602;2022-08-01T06:33:38;20.00;99.90
23987;DHT22;12514;52.140;5.602;2022-08-01T06:36:03;19.90;99.90
23987;DHT22;12514;52.140;5.602;2022-08-01T06:38:29;19.80;99.90
23987;DHT22;12514;52.140;5.602;2022-08-01T06:40:54;19.80;99.90
23987;DHT22;12514;52.140;5.602;2022-08-01T06:43:20;19.90;99.90
23987;DHT22;12514;52.140;5.602;2022-08-01T06:45:46;19.90;99.90
23987;DHT22;12514;52.140;5.602;2022-08-01T06:48:12;20.10;99.90
23987;DHT22;12514;52.140;5.602;2022-08-01T06:50:38;20.00;99.90
23987;DHT22;12514;52.140;5.602;2022-08-01T06:53:03;19.90;99.90
23987;DHT22;12514;52.140;5.602;2022-08-01T06:55:29;20.00;99.90
23987;DHT22;12514;52.140;5.602;2022-08-01T07:01:17;20.10;99.90
23987;DHT22;12514;52.140;5.602;2022-08-01T07:03:42;20.20;99.90
23987;DHT22;12514;52.140;5.602;2022-08-01T07:06:08;20.30;99.90
23987;DHT22;12514;52.140;5.602;2022-08-01T07:08:34;20.20;99.90
23987;DHT22;12514;52.140;5.602;2022-08-01T07:11:00;20.30;99.90
23987;DHT22;12514;52.140;5.602;2022-08-01T07:13:27;20.20;99.90
23987;DHT22;12514;52.140;5.602;2022-08-01T07:15:53;20.20;99.90
23987;DHT22;12514;52.140;5.602;2022-08-01T07:18:19;20.00;99.90
23987;DHT22;12514;52.140;5.602;2022-08-01T07:20:45;20.00;99.90
23987;DHT22;12514;52.140;5.602;2022-08-01T07:23:12;20.00;99.90
23987;DHT22;12514;52.140;5.602;2022-08-01T07:25:38;20.10;99.90
23987;DHT22;12514;52.140;5.602;2022-08-01T07:31:25;20.40;99.90
23987;DHT22;12514;52.140;5.602;2022-08-01T07:33:51;20.40;99.90
23987;DHT22;12514;52.140;5.602;2022-08-01T07:36:17;20.40;99.90
23987;DHT22;12514;52.140;5.602;2022-08-01T07:38:44;20.40;99.90
23987;DHT22;12514;52.140;5.602;2022-08-01T07:41:10;20.40;99.90
23987;DHT22;12514;52.140;5.602;2022-08-01T07:43:36;20.20;99.90
23987;DHT22;12514;52.140;5.602;2022-08-01T07:46:04;20.00;99.90
23987;DHT22;12514;52.140;5.602;2022-08-01T07:48:30;20.00;99.90
23987;DHT22;12514;52.140;5.602;2022-08-01T07:50:56;19.90;99.90
23987;DHT22;12514;52.140;5.602;2022-08-01T07:53:22;19.60;99.90
23987;DHT22;12514;52.140;5.602;2022-08-01T07:55:48;19.70;99.90
23987;DHT22;12514;52.140;5.602;2022-08-01T08:01:35;19.60;99.90
23987;DHT22;12514;52.140;5.602;2022-08-01T08:04:01;19.60;99.90
23987;DHT22;12514;52.140;5.602;2022-08-01T08:06:26;19.50;99.90
23987;DHT22;12514;52.140;5.602;2022-08-01T08:08:52;19.50;99.90
23987;DHT22;12514;52.140;5.602;2022-08-01T08:11:19;19.60;99.90
23987;DHT22;12514;52.140;5.602;2022-08-01T08:13:44;19.50;99.90
23987;DHT22;12514;52.140;5.602;2022-08-01T08:16:10;19.60;99.90
23987;DHT22;12514;52.140;5.602;2022-08-01T08:18:35;19.70;99.90
23987;DHT22;12514;52.140;5.602;2022-08-01T08:21:02;19.90;99.90
23987;DHT22;12514;52.140;5.602;2022-08-01T08:23:27;19.90;99.90
23987;DHT22;12514;52.140;5.602;2022-08-01T08:26:12;20.00;99.90
23987;DHT22;12514;52.140;5.602;2022-08-01T08:32:00;20.10;99.90
23987;DHT22;12514;52.140;5.602;2022-08-01T08:34:27;20.20;99.90
23987;DHT22;12514;52.140;5.602;2022-08-01T08:36:54;20.40;99.90
23987;DHT22;12514;52.140;5.602;2022-08-01T08:39:20;20.70;99.90
23987;DHT22;12514;52.140;5.602;2022-08-01T08:41:46;20.70;99.90
23987;DHT22;12514;52.140;5.602;2022-08-01T08:44:12;20.90;99.90
23987;DHT22;12514;52.140;5.602;2022-08-01T08:46:42;21.00;99.90
23987;DHT22;12514;52.140;5.602;2022-08-01T08:49:10;21.00;99.90
23987;DHT22;12514;52.140;5.602;2022-08-01T08:51:41;21.00;99.90
23987;DHT22;12514;52.140;5.602;2022-08-01T08:54:08;21.20;99.90
23987;DHT22;12514;52.140;5.602;2022-08-01T08:56:37;20.80;99.90
23987;DHT22;12514;52.140;5.602;2022-08-01T08:59:03;20.50;99.90
23987;DHT22;12514;52.140;5.602;2022-08-01T09:01:31;20.50;99.90
23987;DHT22;12514;52.140;5.602;2022-08-01T09:03:58;20.60;99.90
23987;DHT22;12514;52.140;5.602;2022-08-01T09:06:23;20.60;99.90
23987;DHT22;12514;52.140;5.602;2022-08-01T09:08:49;20.80;99.90
23987;DHT22;12514;52.140;5.602;2022-08-01T09:11:15;21.00;99.90
23987;DHT22;12514;52.140;5.602;2022-08-01T09:17:09;21.30;99.90
23987;DHT22;12514;52.140;5.602;2022-08-01T09:19:44;20.80;99.90
23987;DHT22;12514;52.140;5.602;2022-08-01T09:22:18;20.80;99.90
23987;DHT22;12514;52.140;5.602;2022-08-01T09:25:10;20.90;99.90
23987;DHT22;12514;52.140;5.602;2022-08-01T09:27:37;20.40;99.90
23987;DHT22;12514;52.140;5.602;2022-08-01T09:30:13;20.30;99.90
23987;DHT22;12514;52.140;5.602;2022-08-01T09:32:59;20.50;99.90
23987;DHT22;12514;52.140;5.602;2022-08-01T09:35:34;20.90;99.90
23987;DHT22;12514;52.140;5.602;2022-08-01T09:38:17;21.00;99.90
23987;DHT22;12514;52.140;5.602;2022-08-01T09:43:11;21.10;99.90
23987;DHT22;12514;52.140;5.602;2022-08-01T09:45:37;21.20;99.90
23987;DHT22;12514;52.140;5.602;2022-08-01T09:48:07;21.40;99.90
23987;DHT22;12514;52.140;5.602;2022-08-01T09:50:46;21.50;99.90
23987;DHT22;12514;52.140;5.602;2022-08-01T09:53:13;21.40;99.90
23987;DHT22;12514;52.140;5.602;2022-08-01T09:55:41;21.20;99.90
23987;DHT22;12514;52.140;5.602;2022-08-01T09:58:07;21.20;99.90
23987;DHT22;12514;52.140;5.602;2022-08-01T10:00:34;21.20;99.90
23987;DHT22;12514;52.140;5.602;2022-08-01T10:03:21;21.30;99.90
23987;DHT22;12514;52.140;5.602;2022-08-01T10:05:47;21.50;99.90
23987;DHT22;12514;52.140;5.602;2022-08-01T10:08:13;21.60;99.90
23987;DHT22;12514;52.140;5.602;2022-08-01T10:10:39;21.80;99.90
23987;DHT22;12514;52.140;5.602;2022-08-01T10:13:05;21.90;99.90
23987;DHT22;12514;52.140;5.602;2022-08-01T10:15:31;21.80;99.90
23987;DHT22;12514;52.140;5.602;2022-08-01T10:18:00;21.90;99.90
23987;DHT22;12514;52.140;5.602;2022-08-01T10:20:30;21.90;99.90
23987;DHT22;12514;52.140;5.602;2022-08-01T10:22:59;22.20;99.90
23987;DHT22;12514;52.140;5.602;2022-08-01T10:25:28;22.10;99.90
23987;DHT22;12514;52.140;5.602;2022-08-01T10:27:54;22.10;99.90
23987;DHT22;12514;52.140;5.602;2022-08-01T10:30:23;22.10;99.90
23987;DHT22;12514;52.140;5.602;2022-08-01T10:32:50;22.10;99.90
23987;DHT22;12514;52.140;5.602;2022-08-01T10:35:18;22.10;99.90
23987;DHT22;12514;52.140;5.602;2022-08-01T10:37:45;22.40;99.90
23987;DHT22;12514;52.140;5.602;2022-08-01T10:40:15;22.40;99.90
23987;DHT22;12514;52.140;5.602;2022-08-01T10:42:45;22.40;99.90
23987;DHT22;12514;52.140;5.602;2022-08-01T10:45:13;22.60;99.90
23987;DHT22;12514;52.140;5.602;2022-08-01T10:47:52;22.70;99.90
23987;DHT22;12514;52.140;5.602;2022-08-01T10:50:34;22.50;99.90
23987;DHT22;12514;52.140;5.602;2022-08-01T10:55:58;22.90;99.90
23987;DHT22;12514;52.140;5.602;2022-08-01T10:58:35;22.90;99.90
23987;DHT22;12514;52.140;5.602;2022-08-01T11:01:22;23.10;99.90
23987;DHT22;12514;52.140;5.602;2022-08-01T11:09:24;23.30;99.90
23987;DHT22;12514;52.140;5.602;2022-08-01T11:20:11;22.90;99.90
23987;DHT22;12514;52.140;5.602;2022-08-01T11:31:33;23.50;99.90
23987;DHT22;12514;52.140;5.602;2022-08-01T11:33:59;23.50;99.90
23987;DHT22;12514;52.140;5.602;2022-08-01T11:36:25;23.50;99.90
23987;DHT22;12514;52.140;5.602;2022-08-01T11:41:31;23.50;99.90
23987;DHT22;12514;52.140;5.602;2022-08-01T11:47:46;23.50;99.90
23987;DHT22;12514;52.140;5.602;2022-08-01T11:53:04;23.40;99.90
23987;DHT22;12514;52.140;5.602;2022-08-01T11:55:30;23.10;99.90
23987;DHT22;12514;52.140;5.602;2022-08-01T11:58:03;23.10;99.90
23987;DHT22;12514;52.140;5.602;2022-08-01T12:00:29;23.00;99.90
23987;DHT22;12514;52.140;5.602;2022-08-01T12:03:05;23.10;99.90
23987;DHT22;12514;52.140;5.602;2022-08-01T12:05:33;22.70;99.90
23987;DHT22;12514;52.140;5.602;2022-08-01T12:08:01;22.40;99.90
23987;DHT22;12514;52.140;5.602;2022-08-01T12:10:33;22.60;99.90
23987;DHT22;12514;52.140;5.602;2022-08-01T12:13:04;22.90;99.90
23987;DHT22;12514;52.140;5.602;2022-08-01T12:15:35;22.60;99.90
23987;DHT22;12514;52.140;5.602;2022-08-01T12:18:03;22.50;99.90
23987;DHT22;12514;52.140;5.602;2022-08-01T12:20:38;22.50;99.90
23987;DHT22;12514;52.140;5.602;2022-08-01T12:23:06;22.60;99.90
23987;DHT22;12514;52.140;5.602;2022-08-01T12:25:33;22.70;99.90
23987;DHT22;12514;52.140;5.602;2022-08-01T12:28:01;22.70;99.90
23987;DHT22;12514;52.140;5.602;2022-08-01T12:30:27;22.60;99.90
23987;DHT22;12514;52.140;5.602;2022-08-01T12:32:56;22.60;99.90
23987;DHT22;12514;52.140;5.602;2022-08-01T12:35:24;22.70;99.90
23987;DHT22;12514;52.140;5.602;2022-08-01T12:37:55;22.50;99.90
23987;DHT22;12514;52.140;5.602;2022-08-01T12:40:23;22.80;99.90
23987;DHT22;12514;52.140;5.602;2022-08-01T12:42:51;22.90;99.90
23987;DHT22;12514;52.140;5.602;2022-08-01T12:45:28;23.00;99.90
23987;DHT22;12514;52.140;5.602;2022-08-01T12:47:56;22.90;99.90
23987;DHT22;12514;52.140;5.602;2022-08-01T12:50:27;22.90;99.90
23987;DHT22;12514;52.140;5.602;2022-08-01T12:52:53;23.10;99.90
23987;DHT22;12514;52.140;5.602;2022-08-01T12:55:21;23.10;99.90
23987;DHT22;12514;52.140;5.602;2022-08-01T12:58:07;23.10;99.90
23987;DHT22;12514;52.140;5.602;2022-08-01T13:00:34;22.90;99.90
23987;DHT22;12514;52.140;5.602;2022-08-01T13:03:05;23.00;99.90
23987;DHT22;12514;52.140;5.602;2022-08-01T13:08:21;23.00;99.90
23987;DHT22;12514;52.140;5.602;2022-08-01T13:10:47;23.00;99.90
23987;DHT22;12514;52.140;5.602;2022-08-01T13:13:15;22.80;99.90
23987;DHT22;12514;52.140;5.602;2022-08-01T13:15:43;22.90;99.90
23987;DHT22;12514;52.140;5.602;2022-08-01T13:20:48;23.30;99.90
23987;DHT22;12514;52.140;5.602;2022-08-01T13:23:19;23.10;99.90
23987;DHT22;12514;52.140;5.602;2022-08-01T13:25:49;23.50;99.90
23987;DHT22;12514;52.140;5.602;2022-08-01T13:28:17;23.70;99.90
23987;DHT22;12514;52.140;5.602;2022-08-01T13:31:03;23.50;99.90
23987;DHT22;12514;52.140;5.602;2022-08-01T13:33:45;23.50;99.90
23987;DHT22;12514;52.140;5.602;2022-08-01T13:36:11;23.10;99.90
23987;DHT22;12514;52.140;5.602;2022-08-01T13:38:37;23.10;99.90
23987;DHT22;12514;52.140;5.602;2022-08-01T13:41:21;23.20;99.90
23987;DHT22;12514;52.140;5.602;2022-08-01T13:43:47;23.40;99.90
23987;DHT22;12514;52.140;5.602;2022-08-01T13:46:13;23.50;99.90
23987;DHT22;12514;52.140;5.602;2022-08-01T13:48:38;23.40;99.90
23987;DHT22;12514;52.140;5.602;2022-08-01T13:51:04;23.50;99.90
23987;DHT22;12514;52.140;5.602;2022-08-01T13:53:29;23.40;99.90
23987;DHT22;12514;52.140;5.602;2022-08-01T13:55:55;23.50;99.90
23987;DHT22;12514;52.140;5.602;2022-08-01T13:58:21;23.90;99.90
23987;DHT22;12514;52.140;5.602;2022-08-01T14:00:47;23.10;99.90
23987;DHT22;12514;52.140;5.602;2022-08-01T14:03:13;23.10;99.90
23987;DHT22;12514;52.140;5.602;2022-08-01T14:05:38;23.00;99.90
23987;DHT22;12514;52.140;5.602;2022-08-01T14:08:05;22.80;99.90
23987;DHT22;12514;52.140;5.602;2022-08-01T14:10:31;23.20;99.90
23987;DHT22;12514;52.140;5.602;2022-08-01T14:12:57;23.50;99.90
23987;DHT22;12514;52.140;5.602;2022-08-01T14:18:45;23.50;99.90
23987;DHT22;12514;52.140;5.602;2022-08-01T14:21:10;23.50;99.90
23987;DHT22;12514;52.140;5.602;2022-08-01T14:23:36;23.50;99.90
23987;DHT22;12514;52.140;5.602;2022-08-01T14:26:02;23.00;99.90
23987;DHT22;12514;52.140;5.602;2022-08-01T14:28:27;23.10;99.90
23987;DHT22;12514;52.140;5.602;2022-08-01T14:30:54;23.40;99.90
23987;DHT22;12514;52.140;5.602;2022-08-01T14:33:21;23.50;99.90
23987;DHT22;12514;52.140;5.602;2022-08-01T14:35:47;23.00;99.90
23987;DHT22;12514;52.140;5.602;2022-08-01T14:38:12;23.10;99.90
23987;DHT22;12514;52.140;5.602;2022-08-01T14:40:38;23.30;99.90
23987;DHT22;12514;52.140;5.602;2022-08-01T14:43:03;23.30;99.90
23987;DHT22;12514;52.140;5.602;2022-08-01T14:48:51;23.20;99.90
23987;DHT22;12514;52.140;5.602;2022-08-01T14:51:17;23.40;99.50
23987;DHT22;12514;52.140;5.602;2022-08-01T14:53:42;23.30;99.90
23987;DHT22;12514;52.140;5.602;2022-08-01T14:56:08;23.20;98.80
23987;DHT22;12514;52.140;5.602;2022-08-01T14:58:33;23.60;99.30
23987;DHT22;12514;52.140;5.602;2022-08-01T15:00:59;23.50;98.60
23987;DHT22;12514;52.140;5.602;2022-08-01T15:03:25;23.20;99.90
23987;DHT22;12514;52.140;5.602;2022-08-01T15:05:51;22.50;99.90
23987;DHT22;12514;52.140;5.602;2022-08-01T15:08:16;22.70;99.90
23987;DHT22;12514;52.140;5.602;2022-08-01T15:10:42;22.80;99.90
23987;DHT22;12514;52.140;5.602;2022-08-01T15:13:08;23.00;99.90
23987;DHT22;12514;52.140;5.602;2022-08-01T15:18:56;23.10;99.90
23987;DHT22;12514;52.140;5.602;2022-08-01T15:21:21;22.90;99.90
23987;DHT22;12514;52.140;5.602;2022-08-01T15:23:47;23.10;99.90
23987;DHT22;12514;52.140;5.602;2022-08-01T15:26:12;23.00;99.90
23987;DHT22;12514;52.140;5.602;2022-08-01T15:28:39;23.30;99.90
23987;DHT22;12514;52.140;5.602;2022-08-01T15:31:04;23.50;99.90
23987;DHT22;12514;52.140;5.602;2022-08-01T15:33:30;23.30;99.40
23987;DHT22;12514;52.140;5.602;2022-08-01T15:35:55;23.20;99.50
23987;DHT22;12514;52.140;5.602;2022-08-01T15:38:21;23.00;99.20
23987;DHT22;12514;52.140;5.602;2022-08-01T15:40:47;23.20;98.60
23987;DHT22;12514;52.140;5.602;2022-08-01T15:43:12;23.10;97.30
23987;DHT22;12514;52.140;5.602;2022-08-01T15:49:04;22.90;97.30
23987;DHT22;12514;52.140;5.602;2022-08-01T15:51:31;23.10;97.60
23987;DHT22;12514;52.140;5.602;2022-08-01T15:53:57;22.60;96.30
23987;DHT22;12514;52.140;5.602;2022-08-01T15:56:23;22.60;96.70
23987;DHT22;12514;52.140;5.602;2022-08-01T15:58:49;22.80;96.50
23987;DHT22;12514;52.140;5.602;2022-08-01T16:01:15;22.70;96.60
23987;DHT22;12514;52.140;5.602;2022-08-01T16:03:40;22.90;96.80
23987;DHT22;12514;52.140;5.602;2022-08-01T16:06:06;23.00;96.00
23987;DHT22;12514;52.140;5.602;2022-08-01T16:08:33;23.00;95.10
23987;DHT22;12514;52.140;5.602;2022-08-01T16:10:58;23.00;96.10
23987;DHT22;12514;52.140;5.602;2022-08-01T16:13:24;22.90;95.90
23987;DHT22;12514;52.140;5.602;2022-08-01T16:19:11;22.90;97.10
23987;DHT22;12514;52.140;5.602;2022-08-01T16:21:38;22.70;97.30
23987;DHT22;12514;52.140;5.602;2022-08-01T16:24:04;22.90;98.30
23987;DHT22;12514;52.140;5.602;2022-08-01T16:26:30;22.60;97.80
23987;DHT22;12514;52.140;5.602;2022-08-01T16:28:55;22.80;98.00
23987;DHT22;12514;52.140;5.602;2022-08-01T16:31:22;23.10;97.90
23987;DHT22;12514;52.140;5.602;2022-08-01T16:33:48;23.10;98.10
23987;DHT22;12514;52.140;5.602;2022-08-01T16:36:15;22.80;98.80
23987;DHT22;12514;52.140;5.602;2022-08-01T16:38:40;22.50;99.10
23987;DHT22;12514;52.140;5.602;2022-08-01T16:41:07;22.50;99.50
23987;DHT22;12514;52.140;5.602;2022-08-01T16:43:33;22.60;98.80
23987;DHT22;12514;52.140;5.602;2022-08-01T16:49:20;22.50;98.00
23987;DHT22;12514;52.140;5.602;2022-08-01T16:51:46;22.60;97.30
23987;DHT22;12514;52.140;5.602;2022-08-01T16:54:11;22.80;97.30
23987;DHT22;12514;52.140;5.602;2022-08-01T16:56:37;23.10;97.90
23987;DHT22;12514;52.140;5.602;2022-08-01T16:59:03;22.80;97.80
23987;DHT22;12514;52.140;5.602;2022-08-01T17:01:28;22.90;97.80
23987;DHT22;12514;52.140;5.602;2022-08-01T17:03:54;22.50;96.60
23987;DHT22;12514;52.140;5.602;2022-08-01T17:06:20;22.80;96.00
23987;DHT22;12514;52.140;5.602;2022-08-01T17:08:45;22.90;96.90
23987;DHT22;12514;52.140;5.602;2022-08-01T17:11:11;22.60;97.90
23987;DHT22;12514;52.140;5.602;2022-08-01T17:13:37;22.70;98.60
23987;DHT22;12514;52.140;5.602;2022-08-01T17:19:24;22.30;98.40
23987;DHT22;12514;52.140;5.602;2022-08-01T17:21:50;22.40;98.90
23987;DHT22;12514;52.140;5.602;2022-08-01T17:24:15;22.90;98.50
23987;DHT22;12514;52.140;5.602;2022-08-01T17:26:41;23.00;98.20
23987;DHT22;12514;52.140;5.602;2022-08-01T17:29:07;23.20;98.20